sensor_id;sensor_type;location;lat;lon;timestamp;pressure;altitude;pressure_sealevel;temperature;humidity
16030;BME280;34770;49.272;11.070;2023-03-21T00:00:26;97973.34;;;6.79;100.00
16030;BME280;34770;49.272;11.070;2023-03-21T00:02:51;97952.81;;;6.63;100.00
16030;BME280;34770;49.272;11.070;2023-03-21T00:05:16;97970.25;;;6.72;100.00
16030;BME280;34770;49.272;11.070;2023-03-21T00:07:42;97967.97;;;6.74;100.00
16030;BME280;34770;49.272;11.070;2023-03-21T00:10:08;97963.06;;;6.62;100.00
16030;BME280;34770;49.272;11.070;2023-03-21T00:12:34;97964.22;;;6.70;100.00
16030;BME280;34770;49.272;11.070;2023-03-21T00:15:06;97960.31;;;6.71;100.00
16030;BME280;34770;49.272;11.070;2023-03-21T00:17:32;97953.31;;;6.56;100.00
16030;BME280;34770;49.272;11.070;2023-03-21T00:19:58;97955.41;;;6.59;100.00
16030;BME280;34770;49.272;11.070;2023-03-21T00:22:25;97957.88;;;6.61;100.00
16030;BME280;34770;49.272;11.070;2023-03-21T00:24:51;97944.69;;;6.58;100.00
16030;BME280;34770;49.272;11.070;2023-03-21T00:27:17;97946.78;;;6.52;100.00
16030;BME280;34770;49.272;11.070;2023-03-21T00:29:44;97940.47;;;6.51;100.00
16030;BME280;34770;49.272;11.070;2023-03-21T00:32:10;97942.09;;;6.52;100.00
16030;BME280;34770;49.272;11.070;2023-03-21T00:34:35;97923.19;;;6.19;100.00
16030;BME280;34770;49.272;11.070;2023-03-21T00:37:02;97940.59;;;6.37;100.00
16030;BME280;34770;49.272;11.070;2023-03-21T00:39:28;97944.50;;;6.36;100.00
16030;BME280;34770;49.272;11.070;2023-03-21T00:41:53;97940.94;;;6.36;100.00
16030;BME280;34770;49.272;11.070;2023-03-21T00:44:18;97942.41;;;6.42;100.00
16030;BME280;34770;49.272;11.070;2023-03-21T00:46:44;97935.06;;;6.37;100.00
16030;BME280;34770;49.272;11.070;2023-03-21T00:49:09;97933.59;;;6.40;100.00
16030;BME280;34770;49.272;11.070;2023-03-21T00:51:34;97920.63;;;6.32;100.00
16030;BME280;34770;49.272;11.070;2023-03-21T00:54:00;97925.66;;;6.38;100.00
16030;BME280;34770;49.272;11.070;2023-03-21T00:56:25;97892.78;;;6.11;100.00
16030;BME280;34770;49.272;11.070;2023-03-21T00:58:51;97921.25;;;6.29;100.00
16030;BME280;34770;49.272;11.070;2023-03-21T01:01:17;97914.38;;;6.09;100.00
16030;BME280;34770;49.272;11.070;2023-03-21T01:03:42;97905.59;;;5.98;100.00
16030;BME280;34770;49.272;11.070;2023-03-21T01:06:12;97916.34;;;5.99;100.00
16030;BME280;34770;49.272;11.070;2023-03-21T01:08:40;97915.47;;;5.90;100.00
16030;BME280;34770;49.272;11.070;2023-03-21T01:11:12;97925.72;;;5.98;100.00
16030;BME280;34770;49.272;11.070;2023-03-21T01:13:39;97915.84;;;6.06;100.00
16030;BME280;34770;49.272;11.070;2023-03-21T01:16:06;97913.41;;;6.13;100.00
16030;BME280;34770;49.272;11.070;2023-03-21T01:18:32;97914.41;;;6.17;100.00
16030;BME280;34770;49.272;11.070;2023-03-21T01:20:59;97905.31;;;6.26;100.00
16030;BME280;34770;49.272;11.070;2023-03-21T01:23:26;97914.41;;;6.35;100.00
16030;BME280;34770;49.272;11.070;2023-03-21T01:25:53;97911.81;;;6.38;100.00
16030;BME280;34770;49.272;11.070;2023-03-21T01:28:19;97909.22;;;6.42;100.00
16030;BME280;34770;49.272;11.070;2023-03-21T01:30:49;97907.59;;;6.41;100.00
16030;BME280;34770;49.272;11.070;2023-03-21T01:33:16;97904.66;;;6.37;100.00
16030;BME280;34770;49.272;11.070;2023-03-21T01:35:41;97903.19;;;6.40;100.00
16030;BME280;34770;49.272;11.070;2023-03-21T01:38:07;97903.06;;;6.45;100.00
16030;BME280;34770;49.272;11.070;2023-03-21T01:40:34;97905.31;;;6.43;100.00
16030;BME280;34770;49.272;11.070;2023-03-21T01:43:00;97914.41;;;6.44;100.00
16030;BME280;34770;49.272;11.070;2023-03-21T01:48:23;97905.97;;;6.40;100.00
16030;BME280;34770;49.272;11.070;2023-03-21T01:50:50;97908.72;;;6.40;100.00
16030;BME280;34770;49.272;11.070;2023-03-21T01:53:18;97897.84;;;6.35;100.00
16030;BME280;34770;49.272;11.070;2023-03-21T01:55:45;97894.91;;;6.40;100.00
16030;BME280;34770;49.272;11.070;2023-03-21T01:58:12;97901.59;;;6.39;100.00
16030;BME280;34770;49.272;11.070;2023-03-21T02:00:43;97900.25;;;6.36;100.00
16030;BME280;34770;49.272;11.070;2023-03-21T02:03:08;97897.19;;;6.38;100.00
16030;BME280;34770;49.272;11.070;2023-03-21T02:06:04;97901.59;;;6.39;100.00
16030;BME280;34770;49.272;11.070;2023-03-21T02:08:32;97895.56;;;6.37;100.00
16030;BME280;34770;49.272;11.070;2023-03-21T02:10:58;97890.38;;;6.35;100.00
16030;BME280;34770;49.272;11.070;2023-03-21T02:13:24;97891.97;;;6.36;100.00
16030;BME280;34770;49.272;11.070;2023-03-21T02:16:00;97896.03;;;6.30;100.00
16030;BME280;34770;49.272;11.070;2023-03-21T02:38:14;97884.69;;;6.32;100.00
16030;BME280;34770;49.272;11.070;2023-03-21T02:43:24;97874.59;;;6.18;100.00
16030;BME280;34770;49.272;11.070;2023-03-21T02:46:20;97887.13;;;6.25;100.00
16030;BME280;34770;49.272;11.070;2023-03-21T02:49:00;97881.75;;;6.28;100.00
16030;BME280;34770;49.272;11.070;2023-03-21T02:51:29;97891.34;;;6.31;100.00
16030;BME280;34770;49.272;11.070;2023-03-21T02:54:00;97862.03;;;6.12;100.00
16030;BME280;34770;49.272;11.070;2023-03-21T02:56:28;97885.16;;;6.16;100.00
16030;BME280;34770;49.272;11.070;2023-03-21T02:58:55;97881.38;;;6.12;100.00
16030;BME280;34770;49.272;11.070;2023-03-21T03:01:21;97877.19;;;6.15;100.00
16030;BME280;34770;49.272;11.070;2023-03-21T03:03:50;97883.34;;;6.12;100.00
16030;BME280;34770;49.272;11.070;2023-03-21T03:06:24;97880.91;;;6.19;100.00
16030;BME280;34770;49.272;11.070;2023-03-21T03:11:24;97880.28;;;6.22;100.00
16030;BME280;34770;49.272;11.070;2023-03-21T03:16:50;97879.28;;;6.27;100.00
16030;BME280;34770;49.272;11.070;2023-03-21T03:19:28;97871.50;;;6.20;100.00
16030;BME280;34770;49.272;11.070;2023-03-21T03:22:01;97868.72;;;6.20;100.00
16030;BME280;34770;49.272;11.070;2023-03-21T03:24:33;97833.63;;;6.03;100.00
16030;BME280;34770;49.272;11.070;2023-03-21T03:29:27;97866.78;;;6.20;100.00
16030;BME280;34770;49.272;11.070;2023-03-21T03:31:59;97869.22;;;6.22;100.00
16030;BME280;34770;49.272;11.070;2023-03-21T03:34:31;97845.63;;;6.07;100.00
16030;BME280;34770;49.272;11.070;2023-03-21T03:37:01;97861.06;;;6.17;100.00
16030;BME280;34770;49.272;11.070;2023-03-21T03:39:42;97856.38;;;6.17;100.00
16030;BME280;34770;49.272;11.070;2023-03-21T03:42:23;97850.19;;;6.20;100.00
16030;BME280;34770;49.272;11.070;2023-03-21T03:44:50;97861.91;;;6.26;100.00
16030;BME280;34770;49.272;11.070;2023-03-21T03:47:20;97864.34;;;6.28;100.00
16030;BME280;34770;49.272;11.070;2023-03-21T03:50:11;97857.66;;;6.29;100.00
16030;BME280;34770;49.272;11.070;2023-03-21T03:52:46;97866.28;;;6.27;100.00
16030;BME280;34770;49.272;11.070;2023-03-21T03:55:16;97839.31;;;6.15;100.00
16030;BME280;34770;49.272;11.070;2023-03-21T03:57:42;97858.34;;;6.26;100.00
16030;BME280;34770;49.272;11.070;2023-03-21T04:00:12;97862.06;;;6.30;100.00
16030;BME280;34770;49.272;11.070;2023-03-21T04:02:38;97852.47;;;6.27;100.00
16030;BME280;34770;49.272;11.070;2023-03-21T04:05:04;97855.56;;;6.26;100.00
16030;BME280;34770;49.272;11.070;2023-03-21T04:07:30;97820.59;;;6.03;100.00
16030;BME280;34770;49.272;11.070;2023-03-21T04:09:55;97850.34;;;6.06;100.00
16030;BME280;34770;49.272;11.070;2023-03-21T04:12:21;97854.75;;;6.16;100.00
16030;BME280;34770;49.272;11.070;2023-03-21T04:14:47;97833.72;;;5.89;100.00
16030;BME280;34770;49.272;11.070;2023-03-21T04:17:13;97849.84;;;6.13;100.00
16030;BME280;34770;49.272;11.070;2023-03-21T04:19:39;97857.34;;;6.13;100.00
16030;BME280;34770;49.272;11.070;2023-03-21T04:22:05;97854.53;;;5.86;100.00
16030;BME280;34770;49.272;11.070;2023-03-21T04:24:30;97857.78;;;5.88;100.00
16030;BME280;34770;49.272;11.070;2023-03-21T04:27:01;97847.84;;;5.79;100.00
16030;BME280;34770;49.272;11.070;2023-03-21T04:29:27;97846.06;;;5.74;100.00
16030;BME280;34770;49.272;11.070;2023-03-21T04:31:54;97857.28;;;5.86;100.00
16030;BME280;34770;49.272;11.070;2023-03-21T04:34:19;97845.78;;;5.93;100.00
16030;BME280;34770;49.272;11.070;2023-03-21T04:36:48;97841.22;;;5.88;100.00
16030;BME280;34770;49.272;11.070;2023-03-21T04:39:15;97847.06;;;5.87;100.00
16030;BME280;34770;49.272;11.070;2023-03-21T04:41:42;97851.59;;;5.91;100.00
16030;BME280;34770;49.272;11.070;2023-03-21T04:44:09;97824.59;;;5.71;100.00
16030;BME280;34770;49.272;11.070;2023-03-21T04:46:36;97858.91;;;5.87;100.00
16030;BME280;34770;49.272;11.070;2023-03-21T04:49:02;97848.50;;;5.84;100.00
16030;BME280;34770;49.272;11.070;2023-03-21T04:51:28;97853.88;;;5.81;100.00
16030;BME280;34770;49.272;11.070;2023-03-21T04:53:53;97853.88;;;5.81;100.00
16030;BME280;34770;49.272;11.070;2023-03-21T04:56:25;97856.47;;;5.77;100.00
16030;BME280;34770;49.272;11.070;2023-03-21T04:58:57;97850.28;;;5.80;100.00
16030;BME280;34770;49.272;11.070;2023-03-21T05:01:22;97847.84;;;5.70;100.00
16030;BME280;34770;49.272;11.070;2023-03-21T05:03:50;97845.25;;;5.73;100.00
16030;BME280;34770;49.272;11.070;2023-03-21T05:06:15;97840.03;;;5.63;100.00
16030;BME280;34770;49.272;11.070;2023-03-21T05:08:40;97845.22;;;5.65;100.00
16030;BME280;34770;49.272;11.070;2023-03-21T05:11:06;97853.81;;;5.54;100.00
16030;BME280;34770;49.272;11.070;2023-03-21T05:13:31;97845.03;;;5.52;100.00
16030;BME280;34770;49.272;11.070;2023-03-21T05:15:57;97854.78;;;5.50;100.00
16030;BME280;34770;49.272;11.070;2023-03-21T05:18:22;97857.34;;;5.46;100.00
16030;BME280;34770;49.272;11.070;2023-03-21T05:20:52;97854.41;;;5.42;100.00
16030;BME280;34770;49.272;11.070;2023-03-21T05:23:22;97846.91;;;5.25;100.00
16030;BME280;34770;49.272;11.070;2023-03-21T05:25:48;97856.69;;;5.40;100.00
16030;BME280;34770;49.272;11.070;2023-03-21T05:28:13;97868.38;;;5.37;100.00
16030;BME280;34770;49.272;11.070;2023-03-21T05:30:43;97866.41;;;5.38;100.00
16030;BME280;34770;49.272;11.070;2023-03-21T05:33:09;97852.28;;;5.39;100.00
16030;BME280;34770;49.272;11.070;2023-03-21T05:35:34;97862.53;;;5.39;100.00
16030;BME280;34770;49.272;11.070;2023-03-21T05:38:00;97832.13;;;5.21;100.00
16030;BME280;34770;49.272;11.070;2023-03-21T05:40:25;97862.84;;;5.37;100.00
16030;BME280;34770;49.272;11.070;2023-03-21T05:42:51;97862.03;;;5.37;100.00
16030;BME280;34770;49.272;11.070;2023-03-21T05:45:16;97861.41;;;5.49;100.00
16030;BME280;34770;49.272;11.070;2023-03-21T05:47:41;97859.16;;;5.51;100.00
16030;BME280;34770;49.272;11.070;2023-03-21T05:50:08;97847.78;;;5.43;100.00
16030;BME280;34770;49.272;11.070;2023-03-21T05:52:35;97825.38;;;5.54;100.00
16030;BME280;34770;49.272;11.070;2023-03-21T05:55:01;97866.41;;;5.87;100.00
16030;BME280;34770;49.272;11.070;2023-03-21T05:57:26;97867.53;;;5.86;100.00
16030;BME280;34770;49.272;11.070;2023-03-21T05:59:53;97872.09;;;5.90;100.00
16030;BME280;34770;49.272;11.070;2023-03-21T06:02:18;97873.69;;;5.91;100.00
16030;BME280;34770;49.272;11.070;2023-03-21T06:04:44;97868.16;;;5.91;100.00
16030;BME280;34770;49.272;11.070;2023-03-21T06:07:10;97876.84;;;6.07;100.00
16030;BME280;34770;49.272;11.070;2023-03-21T06:09:35;97878.78;;;6.16;100.00
16030;BME280;34770;49.272;11.070;2023-03-21T06:12:00;97872.63;;;6.19;100.00
16030;BME280;34770;49.272;11.070;2023-03-21T06:14:26;97874.44;;;6.23;100.00
16030;BME280;34770;49.272;11.070;2023-03-21T06:16:52;97877.69;;;6.34;100.00
16030;BME280;34770;49.272;11.070;2023-03-21T06:19:18;97862.22;;;6.42;100.00
16030;BME280;34770;49.272;11.070;2023-03-21T06:21:45;97874.91;;;6.52;100.00
16030;BME280;34770;49.272;11.070;2023-03-21T06:24:10;97843.69;;;6.51;100.00
16030;BME280;34770;49.272;11.070;2023-03-21T06:26:36;97880.59;;;6.73;100.00
16030;BME280;34770;49.272;11.070;2023-03-21T06:29:02;97864.78;;;6.74;100.00
16030;BME280;34770;49.272;11.070;2023-03-21T06:31:27;97882.53;;;6.81;100.00
16030;BME280;34770;49.272;11.070;2023-03-21T06:33:53;97867.69;;;6.86;100.00
16030;BME280;34770;49.272;11.070;2023-03-21T06:36:19;97872.88;;;6.96;100.00
16030;BME280;34770;49.272;11.070;2023-03-21T06:38:44;97841.69;;;6.78;100.00
16030;BME280;34770;49.272;11.070;2023-03-21T06:41:11;97870.56;;;7.07;100.00
16030;BME280;34770;49.272;11.070;2023-03-21T06:43:37;97871.69;;;7.15;100.00
16030;BME280;34770;49.272;11.070;2023-03-21T06:46:02;97870.84;;;7.23;100.00
16030;BME280;34770;49.272;11.070;2023-03-21T06:48:28;97875.19;;;7.33;100.00
16030;BME280;34770;49.272;11.070;2023-03-21T06:50:53;97867.53;;;7.39;100.00
16030;BME280;34770;49.272;11.070;2023-03-21T06:53:20;97868.28;;;7.48;100.00
16030;BME280;34770;49.272;11.070;2023-03-21T06:55:52;97872.19;;;7.56;100.00
16030;BME280;34770;49.272;11.070;2023-03-21T06:58:17;97873.13;;;7.60;100.00
16030;BME280;34770;49.272;11.070;2023-03-21T07:00:43;97857.00;;;7.62;100.00
16030;BME280;34770;49.272;11.070;2023-03-21T07:03:09;97869.59;;;7.80;100.00
16030;BME280;34770;49.272;11.070;2023-03-21T07:05:35;97881.44;;;7.90;100.00
16030;BME280;34770;49.272;11.070;2023-03-21T07:08:01;97869.50;;;7.98;100.00
16030;BME280;34770;49.272;11.070;2023-03-21T07:10:26;97878.38;;;8.12;100.00
16030;BME280;34770;49.272;11.070;2023-03-21T07:12:52;97876.47;;;8.25;100.00
16030;BME280;34770;49.272;11.070;2023-03-21T07:15:17;97872.03;;;8.33;100.00
16030;BME280;34770;49.272;11.070;2023-03-21T07:17:43;97867.22;;;8.64;100.00
16030;BME280;34770;49.272;11.070;2023-03-21T07:20:09;97872.66;;;8.93;100.00
16030;BME280;34770;49.272;11.070;2023-03-21T07:22:36;97871.16;;;8.96;100.00
16030;BME280;34770;49.272;11.070;2023-03-21T07:25:02;97862.63;;;9.14;100.00
16030;BME280;34770;49.272;11.070;2023-03-21T07:27:28;97839.94;;;9.12;100.00
16030;BME280;34770;49.272;11.070;2023-03-21T07:29:53;97873.31;;;9.49;100.00
16030;BME280;34770;49.272;11.070;2023-03-21T07:32:19;97868.34;;;9.54;100.00
16030;BME280;34770;49.272;11.070;2023-03-21T07:34:44;97878.63;;;9.54;100.00
16030;BME280;34770;49.272;11.070;2023-03-21T07:37:09;97875.84;;;9.41;96.48
16030;BME280;34770;49.272;11.070;2023-03-21T07:39:35;97879.34;;;9.51;96.04
16030;BME280;34770;49.272;11.070;2023-03-21T07:42:00;97866.13;;;9.35;92.11
16030;BME280;34770;49.272;11.070;2023-03-21T07:44:27;97878.03;;;9.23;92.05
16030;BME280;34770;49.272;11.070;2023-03-21T07:46:53;97884.03;;;9.13;94.11
16030;BME280;34770;49.272;11.070;2023-03-21T07:49:19;97878.75;;;9.33;93.95
16030;BME280;34770;49.272;11.070;2023-03-21T07:51:44;97883.16;;;9.46;92.49
16030;BME280;34770;49.272;11.070;2023-03-21T07:54:10;97878.63;;;9.54;90.43
16030;BME280;34770;49.272;11.070;2023-03-21T07:56:35;97881.44;;;9.79;90.90
16030;BME280;34770;49.272;11.070;2023-03-21T07:59:00;97866.81;;;9.82;90.48
16030;BME280;34770;49.272;11.070;2023-03-21T08:01:26;97866.94;;;9.85;88.97
16030;BME280;34770;49.272;11.070;2023-03-21T08:03:51;97869.94;;;10.05;87.72
16030;BME280;34770;49.272;11.070;2023-03-21T08:06:20;97840.84;;;10.15;86.59
16030;BME280;34770;49.272;11.070;2023-03-21T08:08:46;97860.31;;;10.15;83.14
16030;BME280;34770;49.272;11.070;2023-03-21T08:11:11;97868.84;;;10.34;83.40
16030;BME280;34770;49.272;11.070;2023-03-21T08:13:37;97872.69;;;10.71;81.68
16030;BME280;34770;49.272;11.070;2023-03-21T08:16:03;97872.69;;;10.71;77.57
16030;BME280;34770;49.272;11.070;2023-03-21T08:18:29;97872.88;;;10.49;78.17
16030;BME280;34770;49.272;11.070;2023-03-21T08:20:56;97874.97;;;10.40;75.11
16030;BME280;34770;49.272;11.070;2023-03-21T08:23:22;97857.84;;;10.66;74.96
16030;BME280;34770;49.272;11.070;2023-03-21T08:25:52;97851.78;;;10.77;70.44
16030;BME280;34770;49.272;11.070;2023-03-21T08:28:19;97864.91;;;10.92;67.77
16030;BME280;34770;49.272;11.070;2023-03-21T08:30:45;97851.25;;;11.31;67.74
16030;BME280;34770;49.272;11.070;2023-03-21T08:33:10;97855.56;;;11.29;65.63
16030;BME280;34770;49.272;11.070;2023-03-21T08:35:38;97842.69;;;11.40;66.58
16030;BME280;34770;49.272;11.070;2023-03-21T08:38:04;97858.06;;;11.66;64.49
16030;BME280;34770;49.272;11.070;2023-03-21T08:40:30;97856.00;;;11.63;65.01
16030;BME280;34770;49.272;11.070;2023-03-21T08:42:56;97858.16;;;11.06;66.67
16030;BME280;34770;49.272;11.070;2023-03-21T08:45:21;97850.34;;;11.59;66.57
16030;BME280;34770;49.272;11.070;2023-03-21T08:47:47;97856.53;;;12.01;65.00
16030;BME280;34770;49.272;11.070;2023-03-21T08:50:17;97848.31;;;12.08;65.09
16030;BME280;34770;49.272;11.070;2023-03-21T08:52:43;97848.50;;;11.83;63.76
16030;BME280;34770;49.272;11.070;2023-03-21T08:55:09;97845.47;;;12.24;64.78
16030;BME280;34770;49.272;11.070;2023-03-21T08:57:34;97842.13;;;12.54;63.65
16030;BME280;34770;49.272;11.070;2023-03-21T09:00:00;97847.03;;;12.21;63.34
16030;BME280;34770;49.272;11.070;2023-03-21T09:02:25;97851.91;;;12.64;62.37
16030;BME280;34770;49.272;11.070;2023-03-21T09:04:51;97845.81;;;13.01;62.41
16030;BME280;34770;49.272;11.070;2023-03-21T09:07:23;97842.66;;;13.45;59.74
16030;BME280;34770;49.272;11.070;2023-03-21T09:09:50;97844.13;;;13.16;60.68
16030;BME280;34770;49.272;11.070;2023-03-21T09:12:17;97842.63;;;13.68;59.78
16030;BME280;34770;49.272;11.070;2023-03-21T09:14:42;97837.69;;;14.12;57.68
16030;BME280;34770;49.272;11.070;2023-03-21T09:17:07;97824.97;;;14.79;56.22
16030;BME280;34770;49.272;11.070;2023-03-21T09:19:33;64408.81;;;-148.56;100.00
16030;BME280;34770;49.272;11.070;2023-03-21T09:21:59;64408.81;;;-148.56;100.00
16030;BME280;34770;49.272;11.070;2023-03-21T09:24:24;64408.81;;;-148.56;100.00
16030;BME280;34770;49.272;11.070;2023-03-21T09:26:50;64408.81;;;-148.56;100.00
16030;BME280;34770;49.272;11.070;2023-03-21T09:29:16;64408.81;;;-148.56;100.00
16030;BME280;34770;49.272;11.070;2023-03-21T09:31:44;64408.81;;;-148.56;100.00
16030;BME280;34770;49.272;11.070;2023-03-21T09:34:10;64408.81;;;-148.56;100.00
16030;BME280;34770;49.272;11.070;2023-03-21T09:36:36;64408.81;;;-148.56;100.00
16030;BME280;34770;49.272;11.070;2023-03-21T09:39:02;64408.81;;;-148.56;100.00
16030;BME280;34770;49.272;11.070;2023-03-21T09:45:04;64408.81;;;-148.56;100.00
16030;BME280;34770;49.272;11.070;2023-03-21T09:47:38;64408.81;;;-148.56;100.00
16030;BME280;34770;49.272;11.070;2023-03-21T09:50:15;64408.81;;;-148.56;100.00
16030;BME280;34770;49.272;11.070;2023-03-21T09:52:49;64408.81;;;-148.56;100.00
16030;BME280;34770;49.272;11.070;2023-03-21T09:55:21;64408.81;;;-148.56;100.00
16030;BME280;34770;49.272;11.070;2023-03-21T09:57:59;64408.81;;;-148.56;100.00
16030;BME280;34770;49.272;11.070;2023-03-21T10:00:32;64408.81;;;-148.56;100.00
16030;BME280;34770;49.272;11.070;2023-03-21T10:03:02;64408.81;;;-148.56;100.00
16030;BME280;34770;49.272;11.070;2023-03-21T10:05:32;64408.81;;;-148.56;100.00
16030;BME280;34770;49.272;11.070;2023-03-21T10:08:17;64408.81;;;-148.56;100.00
16030;BME280;34770;49.272;11.070;2023-03-21T10:10:49;64408.81;;;-148.56;100.00
16030;BME280;34770;49.272;11.070;2023-03-21T10:13:24;64408.81;;;-148.56;100.00
16030;BME280;34770;49.272;11.070;2023-03-21T10:15:56;64408.81;;;-148.56;100.00
16030;BME280;34770;49.272;11.070;2023-03-21T10:18:24;64408.81;;;-148.56;100.00
16030;BME280;34770;49.272;11.070;2023-03-21T10:20:51;64408.81;;;-148.56;100.00
16030;BME280;34770;49.272;11.070;2023-03-21T10:23:18;64408.81;;;-148.56;100.00
16030;BME280;34770;49.272;11.070;2023-03-21T10:25:54;64408.81;;;-148.56;100.00
16030;BME280;34770;49.272;11.070;2023-03-21T10:28:24;64408.81;;;-148.56;100.00
16030;BME280;34770;49.272;11.070;2023-03-21T10:30:52;64408.81;;;-148.56;100.00
16030;BME280;34770;49.272;11.070;2023-03-21T10:33:27;64408.81;;;-148.56;100.00
16030;BME280;34770;49.272;11.070;2023-03-21T10:36:03;64408.81;;;-148.56;100.00
16030;BME280;34770;49.272;11.070;2023-03-21T10:38:30;64408.81;;;-148.56;100.00
16030;BME280;34770;49.272;11.070;2023-03-21T10:40:55;64408.81;;;-148.56;100.00
16030;BME280;34770;49.272;11.070;2023-03-21T10:45:54;64408.81;;;-148.56;100.00
16030;BME280;34770;49.272;11.070;2023-03-21T10:48:20;64408.81;;;-148.56;100.00
16030;BME280;34770;49.272;11.070;2023-03-21T10:50:48;64408.81;;;-148.56;100.00
16030;BME280;34770;49.272;11.070;2023-03-21T10:53:29;64408.81;;;-148.56;100.00
16030;BME280;34770;49.272;11.070;2023-03-21T10:55:58;64408.81;;;-148.56;100.00
16030;BME280;34770;49.272;11.070;2023-03-21T10:58:26;64408.81;;;-148.56;100.00
16030;BME280;34770;49.272;11.070;2023-03-21T11:01:00;64408.81;;;-148.56;100.00
16030;BME280;34770;49.272;11.070;2023-03-21T11:03:34;64408.81;;;-148.56;100.00
16030;BME280;34770;49.272;11.070;2023-03-21T11:08:53;64408.81;;;-148.56;100.00
16030;BME280;34770;49.272;11.070;2023-03-21T11:11:49;64408.81;;;-148.56;100.00
16030;BME280;34770;49.272;11.070;2023-03-21T11:14:32;64408.81;;;-148.56;100.00
16030;BME280;34770;49.272;11.070;2023-03-21T11:16:58;64408.81;;;-148.56;100.00
16030;BME280;34770;49.272;11.070;2023-03-21T11:19:31;64408.81;;;-148.56;100.00
16030;BME280;34770;49.272;11.070;2023-03-21T11:22:02;64408.81;;;-148.56;100.00
16030;BME280;34770;49.272;11.070;2023-03-21T11:24:30;64408.81;;;-148.56;100.00
16030;BME280;34770;49.272;11.070;2023-03-21T11:26:57;64408.81;;;-148.56;100.00
16030;BME280;34770;49.272;11.070;2023-03-21T11:29:31;64408.81;;;-148.56;100.00
16030;BME280;34770;49.272;11.070;2023-03-21T11:32:11;64408.81;;;-148.56;100.00
16030;BME280;34770;49.272;11.070;2023-03-21T11:34:50;64408.81;;;-148.56;100.00
16030;BME280;34770;49.272;11.070;2023-03-21T11:37:26;64408.81;;;-148.56;100.00
16030;BME280;34770;49.272;11.070;2023-03-21T11:40:27;64408.81;;;-148.56;100.00
16030;BME280;34770;49.272;11.070;2023-03-21T11:42:54;64408.81;;;-148.56;100.00
16030;BME280;34770;49.272;11.070;2023-03-21T11:47:47;64408.81;;;-148.56;100.00
16030;BME280;34770;49.272;11.070;2023-03-21T11:50:26;64408.81;;;-148.56;100.00
16030;BME280;34770;49.272;11.070;2023-03-21T11:58:38;64408.81;;;-148.56;100.00
16030;BME280;34770;49.272;11.070;2023-03-21T12:01:11;64408.81;;;-148.56;100.00
16030;BME280;34770;49.272;11.070;2023-03-21T12:04:01;64408.81;;;-148.56;100.00
16030;BME280;34770;49.272;11.070;2023-03-21T12:06:36;64408.81;;;-148.56;100.00
16030;BME280;34770;49.272;11.070;2023-03-21T12:09:12;64408.81;;;-148.56;100.00
16030;BME280;34770;49.272;11.070;2023-03-21T12:11:51;64408.81;;;-148.56;100.00
16030;BME280;34770;49.272;11.070;2023-03-21T12:14:40;64408.81;;;-148.56;100.00
16030;BME280;34770;49.272;11.070;2023-03-21T12:17:17;64408.81;;;-148.56;100.00
16030;BME280;34770;49.272;11.070;2023-03-21T12:28:01;64408.81;;;-148.56;100.00
16030;BME280;34770;49.272;11.070;2023-03-21T12:33:23;64408.81;;;-148.56;100.00
16030;BME280;34770;49.272;11.070;2023-03-21T12:36:12;64408.81;;;-148.56;100.00
16030;BME280;34770;49.272;11.070;2023-03-21T12:38:56;64408.81;;;-148.56;100.00
16030;BME280;34770;49.272;11.070;2023-03-21T12:41:40;64408.81;;;-148.56;100.00
16030;BME280;34770;49.272;11.070;2023-03-21T12:44:12;64408.81;;;-148.56;100.00
16030;BME280;34770;49.272;11.070;2023-03-21T12:51:57;64408.81;;;-148.56;100.00
16030;BME280;34770;49.272;11.070;2023-03-21T12:54:39;64408.81;;;-148.56;100.00
16030;BME280;34770;49.272;11.070;2023-03-21T12:57:13;64408.81;;;-148.56;100.00
16030;BME280;34770;49.272;11.070;2023-03-21T12:59:53;64408.81;;;-148.56;100.00
16030;BME280;34770;49.272;11.070;2023-03-21T13:02:32;64408.81;;;-148.56;100.00
16030;BME280;34770;49.272;11.070;2023-03-21T13:05:38;64408.81;;;-148.56;100.00
16030;BME280;34770;49.272;11.070;2023-03-21T13:08:18;64408.81;;;-148.56;100.00
16030;BME280;34770;49.272;11.070;2023-03-21T13:10:46;64408.81;;;-148.56;100.00
16030;BME280;34770;49.272;11.070;2023-03-21T13:20:56;64408.81;;;-148.56;100.00
16030;BME280;34770;49.272;11.070;2023-03-21T13:23:23;64408.81;;;-148.56;100.00
16030;BME280;34770;49.272;11.070;2023-03-21T13:25:52;64408.81;;;-148.56;100.00
16030;BME280;34770;49.272;11.070;2023-03-21T13:28:21;64408.81;;;-148.56;100.00
16030;BME280;34770;49.272;11.070;2023-03-21T13:30:49;64408.81;;;-148.56;100.00
16030;BME280;34770;49.272;11.070;2023-03-21T13:33:21;64408.81;;;-148.56;100.00
16030;BME280;34770;49.272;11.070;2023-03-21T13:36:05;64408.81;;;-148.56;100.00
16030;BME280;34770;49.272;11.070;2023-03-21T13:38:34;64408.81;;;-148.56;100.00
16030;BME280;34770;49.272;11.070;2023-03-21T13:43:45;64408.81;;;-148.56;100.00
16030;BME280;34770;49.272;11.070;2023-03-21T13:54:00;64408.81;;;-148.56;100.00
16030;BME280;34770;49.272;11.070;2023-03-21T13:56:25;64408.81;;;-148.56;100.00
16030;BME280;34770;49.272;11.070;2023-03-21T13:58:54;64408.81;;;-148.56;100.00
16030;BME280;34770;49.272;11.070;2023-03-21T14:01:34;64408.81;;;-148.56;100.00
16030;BME280;34770;49.272;11.070;2023-03-21T14:04:10;64408.81;;;-148.56;100.00
16030;BME280;34770;49.272;11.070;2023-03-21T14:09:05;64408.81;;;-148.56;100.00
16030;BME280;34770;49.272;11.070;2023-03-21T14:11:32;64408.81;;;-148.56;100.00
16030;BME280;34770;49.272;11.070;2023-03-21T14:14:00;64408.81;;;-148.56;100.00
16030;BME280;34770;49.272;11.070;2023-03-21T14:16:27;64408.81;;;-148.56;100.00